Chadstone Weather > Observations for 05/09/20

Select Day:



Observations
Time Temp Hum DP Wind Gust Dir Rain >9am Press
C % C kph kph mm hPa
00:00 13.4 64 6.7 12.2 24.5 NNW 0.0 1021.3
00:10 13.4 65 7.0 14.6 27.0 NW 0.0 1021.3
00:20 13.2 66 7.0 11.0 22.0 NW 0.0 1021.3
00:30 13.1 66 6.9 10.0 20.9 NW 0.0 1021.4
00:40 13.1 66 6.9 10.0 22.0 NW 0.0 1021.6
00:50 12.9 68 7.1 9.8 18.4 NNW 0.0 1021.5
01:00 12.7 71 7.6 12.2 24.5 NNW 0.0 1021.5
01:10 12.4 72 7.5 8.4 18.4 NW 0.0 1021.4
01:20 12.1 74 7.6 7.4 18.4 NNW 0.3 1021.3
01:30 11.7 76 7.6 8.2 15.8 N 0.3 1020.9
01:40 11.6 78 7.9 7.0 14.8 N 0.3 1020.8
01:50 11.5 79 8.0 7.0 13.3 NNW 0.3 1020.7
02:00 11.6 79 8.1 8.2 18.4 N 0.3 1020.7
02:10 11.6 79 8.1 7.6 13.3 NNW 0.3 1020.8
02:20 11.6 79 8.1 5.6 12.2 NNW 0.3 1020.8
02:30 11.6 79 8.1 6.3 12.2 NW 0.3 1020.7
02:40 11.5 79 8.0 6.7 13.3 NNW 0.3 1020.7
02:50 11.4 79 7.9 5.8 13.3 NNW 0.3 1020.7
03:00 11.3 80 8.0 2.7 6.1 NW 0.3 1021.0
03:10 11.3 80 8.0 4.9 8.6 NNW 0.3 1020.9
03:20 11.3 80 8.0 3.6 7.2 NNW 0.3 1021.1
03:30 11.3 80 8.0 3.8 8.6 NNW 0.3 1021.0
03:40 11.2 80 7.9 4.1 7.2 NW 0.3 1021.0
03:50 11.3 81 8.2 3.8 7.2 WNW 0.3 1021.0
04:00 11.4 81 8.3 4.4 9.7 NW 0.3 1021.1
04:10 11.4 81 8.3 4.0 11.2 NW 0.3 1021.1
04:20 11.5 82 8.5 4.5 11.2 NW 0.3 1021.1
04:30 11.6 82 8.6 6.0 12.2 WNW 0.3 1021.3
04:40 11.6 81 8.5 5.4 13.3 NW 0.3 1021.4
04:50 11.5 81 8.4 3.7 8.6 NW 0.3 1021.6
05:00 11.4 81 8.3 3.2 11.2 W 0.3 1021.7
05:10 11.4 81 8.3 4.1 8.6 WNW 0.3 1021.8
05:20 11.3 81 8.2 1.8 7.2 WNW 0.3 1022.1
05:30 11.1 81 8.0 2.4 5.0 N 0.3 1022.2
05:40 10.9 82 8.0 2.5 5.0 N 0.3 1022.2
05:50 10.6 82 7.7 2.4 5.0 NNW 0.3 1022.5
06:00 10.3 83 7.5 0.7 3.6 N 0.3 1022.6
06:10 9.9 84 7.3 0.0 0.0 N 0.3 1022.8
06:20 9.6 84 7.0 0.3 2.5 N 0.3 1023.1
06:30 9.4 84 6.8 0.4 2.5 N 0.3 1023.1
06:40 9.3 85 6.9 0.6 2.5 N 0.3 1023.3
06:50 9.5 86 7.3 0.1 1.1 N 0.3 1023.4
07:00 9.7 86 7.5 0.0 1.1 N 0.3 1023.5
07:10 9.9 87 7.8 0.0 0.0 N 0.3 1023.7
07:20 10.1 87 8.0 0.0 0.0 N 0.3 1024.1
07:30 10.2 87 8.1 1.9 8.6 WNW 0.3 1024.2
07:40 10.4 87 8.3 3.3 7.2 WNW 0.3 1024.4
07:50 10.9 87 8.8 3.4 9.7 W 0.3 1024.4
08:00 11.2 86 8.9 4.1 9.7 NW 0.3 1024.4
08:10 11.6 85 9.2 4.9 12.2 W 0.3 1024.7
08:20 11.8 84 9.2 6.1 11.2 W 0.3 1024.8
08:30 12.1 82 9.1 6.8 14.8 NNW 0.3 1024.7
08:40 12.4 81 9.2 5.6 12.2 WNW 0.3 1024.7
08:50 12.6 80 9.2 6.1 13.3 WSW 0.3 1024.9
09:00 12.9 79 9.4 7.7 17.3 W 0.0 1024.9
09:10 13.1 77 9.2 5.5 15.8 SW 0.0 1024.9
09:20 13.3 77 9.4 5.2 18.4 WSW 0.0 1025.1
09:30 13.5 76 9.4 6.6 18.4 W 0.0 1025.1
09:40 13.6 76 9.5 8.9 19.4 W 0.0 1025.1
09:50 13.8 76 9.6 7.2 20.9 W 0.0 1025.2
10:00 13.9 75 9.5 6.8 14.8 WSW 0.0 1025.2
10:10 14.1 74 9.5 6.4 14.8 W 0.0 1025.3
10:20 14.3 74 9.7 7.2 15.8 W 0.0 1025.3
10:30 14.7 73 9.9 6.8 15.8 W 0.0 1025.4
10:40 14.9 72 9.9 8.0 17.3 W 0.0 1025.3
10:50 15.2 70 9.8 6.7 9.7 WSW 0.0 1025.3
11:00 15.0 68 9.1 7.3 15.8 WSW 0.0 1025.4
11:10 15.5 69 9.8 6.6 15.8 SW 0.0 1025.7
11:20 15.5 66 9.2 6.5 15.8 W 0.0 1025.7
11:30 15.8 66 9.5 6.4 15.8 SW 0.0 1025.5
11:40 16.0 63 9.0 7.8 15.8 W 0.0 1025.2
11:50 16.1 62 8.8 5.9 14.8 W 0.0 1025.4
12:00 16.4 59 8.4 5.5 15.8 WSW 0.0 1025.4
12:10 16.6 58 8.3 5.8 17.3 WSW 0.0 1025.3
12:20 16.4 58 8.1 5.1 15.8 W 0.0 1025.3
12:30 16.2 56 7.4 6.4 13.3 W 0.0 1025.3
12:40 16.5 56 7.7 6.9 17.3 WNW 0.0 1025.4
12:50 16.8 56 8.0 7.7 15.8 WSW 0.0 1025.3
13:00 17.1 54 7.7 4.3 11.2 WSW 0.0 1025.5
13:10 17.3 53 7.6 3.7 9.7 WSW 0.0 1025.6
13:20 17.1 53 7.5 4.6 14.8 SW 0.0 1025.4
13:30 16.8 54 7.4 3.3 9.7 SSW 0.0 1025.6
13:40 16.9 54 7.5 4.5 8.6 SW 0.0 1025.9
13:50 16.9 54 7.5 3.3 12.2 SSW 0.0 1025.7
14:00 16.6 52 6.7 3.1 12.2 SW 0.0 1025.7
14:10 16.8 53 7.2 3.8 11.2 SW 0.0 1025.8
14:20 17.2 52 7.3 5.9 14.8 NW 0.0 1025.7
14:30 16.9 52 7.0 4.4 13.3 WNW 0.0 1025.6
14:40 16.8 52 6.9 3.0 15.8 WSW 0.0 1025.6
14:50 17.2 51 7.0 3.0 7.2 WNW 0.0 1025.5
15:00 17.4 51 7.2 5.3 11.2 W 0.0 1025.8
15:10 17.4 50 6.9 3.9 13.3 W 0.0 1025.9
15:20 17.1 50 6.6 3.9 11.2 WSW 0.0 1025.9
15:30 16.8 52 6.9 4.1 11.2 SW 0.0 1026.0
15:40 16.8 52 6.9 2.8 9.7 S 0.0 1026.2
15:50 17.0 51 6.8 2.5 12.2 SW 0.0 1026.2
16:00 16.9 51 6.7 2.0 12.2 S 0.0 1026.3
16:10 16.9 50 6.4 3.3 12.2 SW 0.0 1026.5
16:20 16.8 51 6.6 3.0 7.2 WSW 0.0 1026.6
16:30 16.8 51 6.6 2.9 9.7 S 0.0 1026.7
16:40 16.4 52 6.5 2.6 8.6 SSW 0.0 1026.7
16:50 16.2 52 6.3 3.4 12.2 WSW 0.0 1026.7
17:00 16.3 51 6.2 2.8 8.6 W 0.0 1026.9
17:10 16.2 51 6.1 2.2 9.7 SW 0.0 1026.8
17:20 16.1 51 6.0 1.8 6.1 S 0.0 1027.2
17:30 15.8 53 6.2 1.5 8.6 WSW 0.0 1027.4
17:40 15.6 53 6.1 2.6 7.2 SW 0.0 1027.6
17:50 15.4 53 5.9 1.6 6.1 WSW 0.0 1027.9
18:00 15.3 53 5.8 2.3 6.1 SW 0.0 1027.9
18:10 15.0 55 6.0 0.6 3.6 SW 0.0 1028.1
18:20 14.8 56 6.1 1.0 6.1 SW 0.0 1028.3
18:30 14.5 58 6.3 0.1 3.6 WSW 0.0 1028.5
18:40 14.2 59 6.3 0.5 3.6 SW 0.0 1028.7
18:50 14.1 59 6.2 0.1 3.6 S 0.0 1028.8
19:00 14.1 60 6.5 0.0 1.1 S 0.0 1028.9
19:10 14.0 60 6.4 0.0 1.1 S 0.0 1029.0
19:20 14.0 61 6.6 0.0 2.5 S 0.0 1029.1
19:30 14.0 62 6.8 0.1 2.5 S 0.0 1029.0
19:40 14.0 63 7.1 0.0 2.5 S 0.0 1029.0
19:50 13.8 65 7.3 0.2 2.5 S 0.0 1029.0
20:00 13.6 65 7.1 0.0 0.0 N 0.0 1029.0
20:10 13.3 66 7.1 0.0 0.0 N 0.0 1029.1
20:20 13.1 66 6.9 0.4 2.5 S 0.0 1029.3
20:30 13.0 66 6.8 2.7 6.1 SSE 0.0 1029.4
20:40 13.1 67 7.1 3.1 6.1 SE 0.0 1029.4
20:50 13.1 67 7.1 3.6 7.2 SE 0.0 1029.6
21:00 13.0 68 7.2 4.6 9.7 SSE 0.0 1029.7
21:10 13.0 69 7.4 2.6 6.1 SE 0.0 1029.7
21:20 12.9 71 7.8 3.7 8.6 SE 0.0 1029.6
21:30 12.7 72 7.8 3.9 7.2 ESE 0.0 1029.7
21:40 12.6 72 7.7 2.1 5.0 SE 0.0 1029.8
21:50 12.4 73 7.7 1.4 5.0 SE 0.0 1029.7
22:00 12.1 73 7.4 0.7 2.5 ESE 0.0 1029.7
22:10 11.9 75 7.6 0.0 0.0 N 0.0 1029.9
22:20 11.6 75 7.3 0.0 1.1 E 0.0 1029.9
22:30 11.4 75 7.1 0.0 0.0 N 0.0 1029.9
22:40 11.2 76 7.1 0.6 2.5 E 0.0 1029.9
22:50 11.0 76 6.9 0.4 3.6 N 0.0 1029.9
23:00 10.7 78 7.0 0.1 2.5 N 0.0 1029.8
23:10 10.6 78 6.9 0.9 2.5 S 0.0 1030.0
23:20 10.4 79 6.9 0.4 2.5 S 0.0 1030.1
23:30 10.3 79 6.8 0.8 2.5 S 0.0 1030.1
23:40 10.1 80 6.8 0.9 2.5 SE 0.0 1030.0
23:50 10.0 81 6.9 0.3 2.5 SE 0.0 1029.8